Time;durP1;ratioP1;P1;durP2;ratioP2;P2;SDS_P1;SDS_P2;PMS_P1;PMS_P2;Temp;Humidity;BMP_temperature;BMP_pressure;BME280_temperature;BME280_humidity;BME280_pressure;Samples;Min_cycle;Max_cycle;Signal;HPM_P1;HPM_P2
2023/09/02 00:00:23;;;;;;;0.77;0.50;;;12.90;99.90;;;;;;4970968;28;20433;-76
2023/09/02 00:02:48;;;;;;;1.08;0.75;;;12.90;99.90;;;;;;4944517;29;20039;-76
2023/09/02 00:05:15;;;;;;;1.25;0.80;;;12.90;99.90;;;;;;4984166;28;20051;-76
2023/09/02 00:07:41;;;;;;;0.65;0.50;;;12.90;99.90;;;;;;4971245;28;20124;-76
2023/09/02 00:10:08;;;;;;;1.17;0.88;;;13.00;99.90;;;;;;4971241;28;20077;-76
2023/09/02 00:12:34;;;;;;;0.77;0.60;;;13.00;99.90;;;;;;5003663;28;20042;-76
2023/09/02 00:15:00;;;;;;;0.88;0.70;;;13.10;99.90;;;;;;4971560;28;20046;-76
2023/09/02 00:17:25;;;;;;;1.00;0.70;;;13.10;99.90;;;;;;4969392;28;20427;-77
2023/09/02 00:19:51;;;;;;;1.42;1.00;;;13.10;99.90;;;;;;4980776;28;20038;-76
2023/09/02 00:22:16;;;;;;;1.35;0.77;;;13.20;99.90;;;;;;4970839;28;20043;-76
2023/09/02 00:24:43;;;;;;;1.00;0.80;;;13.30;99.90;;;;;;4973479;28;20129;-76
2023/09/02 00:27:09;;;;;;;;;;;13.20;99.90;;;;;;4955758;28;20467;-76
2023/09/02 00:29:34;;;;;;;0.80;0.63;;;13.20;99.90;;;;;;4970966;28;19969;-76
2023/09/02 00:32:00;;;;;;;0.60;0.60;;;13.20;99.90;;;;;;4970944;28;20125;-76
2023/09/02 00:34:26;;;;;;;0.60;0.60;;;13.10;99.90;;;;;;4971063;28;20045;-76
2023/09/02 00:36:52;;;;;;;1.30;0.80;;;13.10;99.90;;;;;;4970663;28;20545;-76
2023/09/02 00:39:18;;;;;;;0.85;0.70;;;13.10;99.90;;;;;;4971016;28;20038;-76
2023/09/02 00:41:48;;;;;;;0.85;0.60;;;13.10;99.90;;;;;;4964996;28;20426;-76
2023/09/02 00:44:14;;;;;;;0.60;0.50;;;13.10;99.90;;;;;;4963867;28;20047;-76
2023/09/02 00:46:40;;;;;;;0.73;0.50;;;13.10;99.90;;;;;;4970522;28;20043;-76
2023/09/02 00:49:06;;;;;;;1.40;0.57;;;13.20;99.90;;;;;;4979838;28;20043;-76
2023/09/02 00:51:32;;;;;;;0.75;0.63;;;13.20;99.90;;;;;;4954694;28;20047;-76
2023/09/02 00:53:58;;;;;;;0.82;0.70;;;13.20;99.90;;;;;;4970510;28;20509;-76
2023/09/02 00:56:24;;;;;;;1.08;0.80;;;13.10;99.90;;;;;;4970313;28;20129;-76
2023/09/02 00:58:52;;;;;;;2.65;0.80;;;13.10;99.90;;;;;;4954669;28;20801;-76
2023/09/02 01:01:18;;;;;;;1.40;0.60;;;13.00;99.90;;;;;;4970368;28;20035;-76
2023/09/02 01:03:44;;;;;;;1.30;0.70;;;12.90;99.90;;;;;;4951066;29;20054;-76
2023/09/02 01:06:10;;;;;;;2.25;0.82;;;12.90;99.90;;;;;;4960339;28;20046;-77
2023/09/02 01:08:37;;;;;;;1.33;0.80;;;12.80;99.90;;;;;;4950112;28;20197;-77
2023/09/02 01:11:03;;;;;;;1.65;0.88;;;12.70;99.90;;;;;;4966941;28;20754;-76
2023/09/02 01:13:30;;;;;;;1.00;0.80;;;12.70;99.90;;;;;;4985224;28;20043;-76
2023/09/02 01:15:56;;;;;;;1.80;0.93;;;12.70;99.90;;;;;;4970633;28;20053;-76
2023/09/02 01:18:25;;;;;;;1.10;0.88;;;12.60;99.90;;;;;;4971033;28;20054;-76
2023/09/02 01:21:06;;;;;;;0.90;0.70;;;12.60;99.90;;;;;;4986860;28;20046;-76
2023/09/02 01:23:47;;;;;;;1.45;0.90;;;12.50;99.90;;;;;;4954560;28;20042;-76
2023/09/02 01:26:40;;;;;;;0.93;0.80;;;12.50;99.90;;;;;;4970245;28;20046;-76
2023/09/02 01:29:13;;;;;;;1.17;0.80;;;12.50;99.90;;;;;;4970659;28;20049;-76
2023/09/02 01:31:39;;;;;;;1.15;0.90;;;12.50;99.90;;;;;;4954728;28;20046;-76
2023/09/02 01:34:06;;;;;;;;;;;12.50;99.90;;;;;;4970972;28;20061;-76
2023/09/02 01:36:33;;;;;;;1.00;0.75;;;12.40;99.90;;;;;;5003230;28;20947;-76
2023/09/02 01:38:59;;;;;;;1.10;0.80;;;12.40;99.90;;;;;;4974244;28;20050;-76
2023/09/02 01:41:28;;;;;;;1.20;0.80;;;12.30;99.90;;;;;;4974245;28;20038;-76
2023/09/02 01:43:54;;;;;;;0.68;0.68;;;12.30;99.90;;;;;;4958568;28;20065;-76
2023/09/02 01:46:21;;;;;;;1.02;0.80;;;12.30;99.90;;;;;;4942470;28;20066;-76
2023/09/02 01:48:47;;;;;;;0.63;0.50;;;12.30;99.90;;;;;;4974603;28;20035;-76
2023/09/02 01:51:13;;;;;;;0.70;0.63;;;12.30;99.90;;;;;;4974511;28;20090;-77
2023/09/02 01:53:40;;;;;;;1.48;0.80;;;12.30;99.90;;;;;;4974542;28;20042;-76
2023/09/02 01:56:05;;;;;;;;;;;12.20;99.90;;;;;;4974658;28;20054;-76
2023/09/02 01:58:31;;;;;;;1.23;0.70;;;12.30;99.90;;;;;;5006638;28;19972;-76
2023/09/02 02:00:58;;;;;;;1.00;0.90;;;12.30;99.90;;;;;;4973222;28;20148;-76
2023/09/02 02:03:37;;;;;;;1.13;0.80;;;12.30;99.90;;;;;;4967980;28;20046;-76
2023/09/02 02:06:08;;;;;;;1.67;0.85;;;12.20;99.90;;;;;;4995509;28;20042;-75
2023/09/02 02:08:46;;;;;;;0.98;0.75;;;12.20;99.90;;;;;;4986679;28;20054;-76
2023/09/02 02:11:13;;;;;;;0.70;0.70;;;12.20;99.90;;;;;;4974187;28;20394;-76
2023/09/02 02:13:38;;;;;;;1.00;0.90;;;12.10;99.90;;;;;;4980938;28;20845;-76
2023/09/02 02:16:05;;;;;;;1.25;0.90;;;12.10;99.90;;;;;;4973206;28;20047;-76
2023/09/02 02:18:31;;;;;;;;;;;12.00;99.90;;;;;;4973673;28;20054;-76
2023/09/02 02:20:58;;;;;;;1.20;0.82;;;12.00;99.90;;;;;;5004639;28;20374;-76
2023/09/02 02:23:24;;;;;;;1.35;0.80;;;12.00;99.90;;;;;;5001041;28;20122;-76
2023/09/02 02:25:50;;;;;;;1.63;0.88;;;12.00;99.90;;;;;;4973579;28;20164;-77
2023/09/02 02:28:16;;;;;;;1.33;0.90;;;11.90;99.90;;;;;;4973135;28;20094;-77
2023/09/02 02:30:41;;;;;;;1.35;0.80;;;11.90;99.90;;;;;;4960012;28;20051;-76
2023/09/02 02:33:07;;;;;;;0.80;0.70;;;12.00;99.90;;;;;;4976927;28;20039;-76
2023/09/02 02:35:33;;;;;;;1.13;0.80;;;11.90;99.90;;;;;;4967932;28;20182;-76
2023/09/02 02:38:02;;;;;;;0.98;0.80;;;11.90;99.90;;;;;;4989151;28;20096;-76
2023/09/02 02:40:28;;;;;;;0.82;0.70;;;11.90;99.90;;;;;;4968076;28;20047;-76
2023/09/02 02:42:54;;;;;;;0.90;0.70;;;11.80;99.90;;;;;;4977194;28;20065;-76
2023/09/02 02:45:19;;;;;;;0.65;0.65;;;11.80;99.90;;;;;;4973432;28;20069;-76
2023/09/02 02:47:45;;;;;;;0.85;0.70;;;11.80;99.90;;;;;;4965334;28;20043;-76
2023/09/02 02:50:11;;;;;;;0.80;0.77;;;11.80;99.90;;;;;;4970865;28;20170;-76
2023/09/02 02:52:37;;;;;;;1.15;0.63;;;11.70;99.90;;;;;;4987183;28;20491;-76
2023/09/02 02:55:03;;;;;;;;;;;11.70;99.90;;;;;;4986560;28;20046;-76
2023/09/02 02:57:29;;;;;;;1.05;0.80;;;11.70;99.90;;;;;;4989242;28;19922;-76
2023/09/02 02:59:55;;;;;;;1.00;0.90;;;11.70;99.90;;;;;;4956269;28;20055;-76
2023/09/02 03:02:20;;;;;;;0.90;0.90;;;11.70;99.90;;;;;;4972395;28;20077;-76
2023/09/02 03:04:48;;;;;;;1.15;0.88;;;11.70;99.90;;;;;;4972611;28;20058;-76
2023/09/02 03:07:18;;;;;;;0.98;0.77;;;11.70;99.90;;;;;;4972199;28;20050;-76
2023/09/02 03:09:44;;;;;;;1.35;1.00;;;11.60;99.90;;;;;;4971402;28;20106;-76
2023/09/02 03:12:09;;;;;;;1.20;1.10;;;11.60;99.90;;;;;;5005219;28;20141;-76
2023/09/02 03:14:35;;;;;;;0.95;0.75;;;11.60;99.90;;;;;;4972853;28;20043;-76
2023/09/02 03:17:00;;;;;;;1.00;0.80;;;11.60;99.90;;;;;;4972451;28;20066;-76
2023/09/02 03:19:26;;;;;;;1.42;0.90;;;11.60;99.90;;;;;;4955851;28;20486;-76
2023/09/02 03:21:52;;;;;;;1.50;1.00;;;11.60;99.90;;;;;;4939167;28;20451;-76
2023/09/02 03:24:17;;;;;;;1.35;0.80;;;11.60;99.90;;;;;;4972734;28;20050;-76
2023/09/02 03:26:43;;;;;;;1.75;1.00;;;11.60;99.90;;;;;;4970127;28;20077;-76
2023/09/02 03:29:09;;;;;;;1.00;0.80;;;11.60;99.90;;;;;;4978618;28;20126;-76
2023/09/02 03:31:34;;;;;;;0.80;0.75;;;11.50;99.90;;;;;;4951078;28;20031;-76
2023/09/02 03:34:00;;;;;;;0.98;0.90;;;11.60;99.90;;;;;;4969576;28;20042;-76
2023/09/02 03:36:26;;;;;;;1.48;0.90;;;11.60;99.90;;;;;;4971835;28;20050;-76
2023/09/02 03:38:51;;;;;;;1.13;0.90;;;11.70;99.90;;;;;;4953056;29;20050;-76
2023/09/02 03:41:17;;;;;;;1.23;0.90;;;11.70;99.90;;;;;;4967016;28;20379;-76
2023/09/02 03:43:46;;;;;;;1.88;1.27;;;11.80;99.90;;;;;;4971375;28;20047;-76
2023/09/02 03:46:14;;;;;;;1.48;1.15;;;11.80;99.90;;;;;;4988461;28;20049;-76
2023/09/02 03:48:40;;;;;;;1.48;1.10;;;11.90;99.90;;;;;;4971266;28;20038;-76
2023/09/02 03:51:17;;;;;;;1.42;1.20;;;11.90;99.90;;;;;;4970306;28;20388;-76
2023/09/02 03:53:43;;;;;;;1.27;1.17;;;11.90;99.90;;;;;;5004110;28;20112;-76
2023/09/02 03:56:09;;;;;;;;;;;12.00;99.90;;;;;;4972161;28;20038;-76
2023/09/02 03:58:36;;;;;;;1.50;1.05;;;12.00;99.90;;;;;;4970112;28;20384;-76
2023/09/02 04:01:02;;;;;;;1.17;1.00;;;12.10;99.90;;;;;;4968176;28;20042;-76
2023/09/02 04:03:30;;;;;;;1.25;1.15;;;12.10;99.90;;;;;;4964893;28;20685;-76
2023/09/02 04:05:56;;;;;;;1.88;1.10;;;12.20;99.90;;;;;;4963464;28;20050;-76
2023/09/02 04:08:23;;;;;;;1.30;1.17;;;12.30;99.90;;;;;;4945556;28;20102;-76
2023/09/02 04:10:55;;;;;;;1.90;1.20;;;12.40;99.90;;;;;;5003137;28;20050;-76
2023/09/02 04:13:26;;;;;;;1.10;1.00;;;12.40;99.90;;;;;;4960314;28;20035;-76
2023/09/02 04:16:00;;;;;;;1.10;0.98;;;12.40;99.90;;;;;;4966977;28;20450;-76
2023/09/02 04:18:26;;;;;;;1.23;1.00;;;12.50;99.90;;;;;;4965137;28;20059;-76
2023/09/02 04:20:52;;;;;;;1.40;1.00;;;12.50;99.90;;;;;;5001241;28;20039;-76
2023/09/02 04:23:21;;;;;;;;;;;12.60;99.90;;;;;;4956898;28;20051;-76
2023/09/02 04:25:52;;;;;;;1.50;1.30;;;12.60;99.90;;;;;;4970207;28;19997;-77
2023/09/02 04:28:18;;;;;;;1.80;1.38;;;12.60;99.90;;;;;;4968443;28;20046;-77
2023/09/02 04:30:44;;;;;;;;;;;12.60;99.90;;;;;;4982767;28;20061;-77
2023/09/02 04:33:11;;;;;;;1.63;1.40;;;12.60;99.90;;;;;;4990303;28;19919;-77
2023/09/02 04:35:37;;;;;;;2.42;1.92;;;12.60;99.90;;;;;;4969766;28;20149;-77
2023/09/02 04:38:04;;;;;;;2.53;2.03;;;12.60;99.90;;;;;;4968027;28;20368;-76
2023/09/02 04:40:31;;;;;;;3.22;2.17;;;12.60;99.90;;;;;;4965258;28;20258;-76
2023/09/02 04:42:56;;;;;;;;;;;12.60;99.90;;;;;;4971319;28;20031;-76
2023/09/02 04:45:22;;;;;;;1.92;1.70;;;12.60;99.90;;;;;;5003154;28;19987;-76
2023/09/02 04:47:49;;;;;;;2.40;1.73;;;12.60;99.90;;;;;;4969392;28;20070;-76
2023/09/02 04:50:15;;;;;;;2.20;1.67;;;12.60;99.90;;;;;;4970031;28;20034;-76
2023/09/02 04:52:44;;;;;;;2.60;1.92;;;12.60;99.90;;;;;;4970803;28;20105;-76
2023/09/02 04:55:10;;;;;;;1.75;1.35;;;12.60;99.90;;;;;;4969068;28;20046;-76
2023/09/02 04:57:36;;;;;;;2.33;1.80;;;12.60;99.90;;;;;;4945435;28;20193;-76
2023/09/02 05:00:03;;;;;;;2.17;1.85;;;12.60;99.90;;;;;;4967414;28;20470;-75
2023/09/02 05:02:28;;;;;;;2.05;1.70;;;12.60;99.90;;;;;;4978805;28;20077;-76
2023/09/02 05:04:54;;;;;;;2.00;1.50;;;12.60;99.90;;;;;;4967013;28;20478;-76
2023/09/02 05:07:20;;;;;;;2.15;1.70;;;12.50;99.90;;;;;;4953513;28;20482;-76
2023/09/02 05:09:46;;;;;;;1.92;1.45;;;12.50;99.90;;;;;;4970260;28;20110;-76
2023/09/02 05:12:11;;;;;;;1.50;1.40;;;12.60;99.90;;;;;;4968403;28;20049;-75
2023/09/02 05:14:39;;;;;;;1.70;1.30;;;12.50;99.90;;;;;;4951155;28;20140;-75
2023/09/02 05:17:04;;;;;;;1.75;1.50;;;12.50;99.90;;;;;;4951204;28;20038;-76
2023/09/02 05:19:30;;;;;;;2.83;1.55;;;12.50;99.90;;;;;;4993276;28;20461;-76
2023/09/02 05:21:57;;;;;;;1.95;1.60;;;12.50;99.90;;;;;;5002431;28;20484;-76
2023/09/02 05:24:23;;;;;;;1.85;1.50;;;12.40;99.90;;;;;;4954274;28;20057;-76
2023/09/02 05:26:49;;;;;;;1.70;1.50;;;12.40;99.90;;;;;;4969901;28;20047;-76
2023/09/02 05:29:15;;;;;;;2.15;1.52;;;12.40;99.90;;;;;;4969666;28;20049;-76
2023/09/02 05:31:40;;;;;;;1.60;1.50;;;12.40;99.90;;;;;;4967670;28;20834;-75
2023/09/02 05:34:06;;;;;;;1.75;1.60;;;12.40;99.90;;;;;;4963603;28;20041;-75
2023/09/02 05:36:32;;;;;;;1.83;1.45;;;12.50;99.90;;;;;;4944654;28;20399;-76
2023/09/02 05:38:57;;;;;;;1.60;1.50;;;12.50;99.90;;;;;;4967873;28;20480;-75
2023/09/02 05:41:24;;;;;;;2.15;1.58;;;12.60;99.90;;;;;;4968290;28;20059;-75
2023/09/02 05:43:50;;;;;;;1.30;1.10;;;12.60;99.90;;;;;;4949153;28;20291;-75
2023/09/02 05:46:16;;;;;;;1.58;1.20;;;12.70;99.90;;;;;;4944202;29;20121;-75
2023/09/02 05:48:41;;;;;;;1.13;1.02;;;12.80;99.90;;;;;;4996360;28;20121;-76
2023/09/02 05:51:07;;;;;;;1.48;1.30;;;12.90;99.90;;;;;;4951893;28;20047;-76
2023/09/02 05:53:33;;;;;;;1.25;1.15;;;13.00;99.90;;;;;;4969867;28;20134;-76
2023/09/02 05:55:59;;;;;;;1.25;1.15;;;13.00;99.90;;;;;;4965148;28;20390;-76
2023/09/02 05:58:26;;;;;;;1.30;1.17;;;13.10;99.90;;;;;;4976258;28;20522;-76
2023/09/02 06:00:51;;;;;;;2.55;1.58;;;13.20;99.90;;;;;;4960302;28;20411;-76
2023/09/02 06:03:17;;;;;;;1.80;1.58;;;13.30;99.90;;;;;;4969448;28;20043;-75
2023/09/02 06:05:43;;;;;;;1.38;1.20;;;13.30;99.90;;;;;;4968209;28;20043;-76
2023/09/02 06:08:09;;;;;;;1.70;1.27;;;13.40;99.90;;;;;;4988661;28;20045;-75
2023/09/02 06:10:35;;;;;;;1.63;1.20;;;13.60;99.90;;;;;;4951088;28;20096;-75
2023/09/02 06:13:01;;;;;;;1.58;1.40;;;13.60;99.90;;;;;;4963041;28;20051;-75
2023/09/02 06:15:27;;;;;;;1.58;1.33;;;13.70;99.90;;;;;;4949834;28;20054;-75
2023/09/02 06:17:52;;;;;;;1.70;1.30;;;13.80;99.90;;;;;;4959050;28;20050;-75
2023/09/02 06:20:20;;;;;;;2.00;1.40;;;13.90;99.90;;;;;;4960917;28;20047;-75
2023/09/02 06:22:46;;;;;;;1.60;1.40;;;14.00;99.90;;;;;;4968464;28;20047;-75
2023/09/02 06:25:12;;;;;;;1.58;1.23;;;14.00;99.90;;;;;;4973086;28;20039;-75
2023/09/02 06:27:38;;;;;;;1.80;1.35;;;14.20;99.90;;;;;;4972980;28;20517;-75
2023/09/02 06:30:05;;;;;;;1.58;1.20;;;14.20;99.90;;;;;;4973571;28;20054;-76
2023/09/02 06:32:31;;;;;;;1.65;1.42;;;14.40;99.90;;;;;;4963787;28;20130;-72
2023/09/02 06:34:57;;;;;;;2.05;1.52;;;14.50;99.90;;;;;;4971733;28;20054;-74
2023/09/02 06:37:24;;;;;;;1.50;1.30;;;14.80;99.90;;;;;;4973276;28;20116;-74
2023/09/02 06:39:56;;;;;;;1.88;1.63;;;15.20;99.90;;;;;;4973449;28;20042;-76
2023/09/02 06:42:23;;;;;;;2.15;1.77;;;15.60;99.90;;;;;;4971057;28;20053;-76
2023/09/02 06:44:53;;;;;;;1.83;1.50;;;15.90;99.90;;;;;;4972709;28;20030;-76
2023/09/02 06:47:19;;;;;;;2.15;1.60;;;16.20;99.90;;;;;;4972987;28;20136;-76
2023/09/02 06:49:44;;;;;;;2.30;1.95;;;16.40;99.90;;;;;;4971467;28;20106;-76
2023/09/02 06:52:11;;;;;;;2.10;1.67;;;16.70;99.90;;;;;;4971937;28;20042;-76
2023/09/02 06:54:36;;;;;;;2.20;1.70;;;16.90;99.90;;;;;;4936862;29;20379;-77
2023/09/02 06:57:03;;;;;;;2.75;2.38;;;17.20;99.90;;;;;;5002821;28;20047;-77
2023/09/02 06:59:29;;;;;;;2.60;2.00;;;17.30;99.90;;;;;;4972886;28;20081;-76
2023/09/02 07:01:54;;;;;;;2.53;1.90;;;17.50;99.90;;;;;;4973813;28;20502;-76
2023/09/02 07:04:20;;;;;;;2.00;1.80;;;17.60;99.90;;;;;;4938139;28;20502;-76
2023/09/02 07:06:46;;;;;;;2.65;2.08;;;17.80;99.90;;;;;;4967370;28;20402;-76
2023/09/02 07:09:11;;;;;;;2.60;2.20;;;17.90;99.90;;;;;;4998824;28;20136;-76
2023/09/02 07:11:37;;;;;;;;;;;18.00;99.90;;;;;;4964790;28;20043;-77
2023/09/02 07:14:03;;;;;;;3.67;2.95;;;18.10;99.90;;;;;;4981071;28;19922;-77
2023/09/02 07:16:28;;;;;;;;;;;18.10;99.90;;;;;;4970094;28;20558;-77
2023/09/02 07:18:54;;;;;;;3.88;2.83;;;18.10;99.90;;;;;;4963724;28;19923;-77
2023/09/02 07:21:23;;;;;;;;;;;18.10;99.90;;;;;;4971749;28;20069;-77
2023/09/02 07:23:49;;;;;;;3.85;2.60;;;18.10;99.90;;;;;;4975606;28;19918;-77
2023/09/02 07:26:15;;;;;;;3.63;2.80;;;18.10;99.90;;;;;;4966136;28;20054;-77
2023/09/02 07:28:42;;;;;;;;;;;18.30;1.00;;;;;;4980811;28;20038;-75
2023/09/02 07:31:09;;;;;;;3.35;2.60;;;18.30;99.90;;;;;;5002283;28;19921;-75
2023/09/02 07:33:35;;;;;;;2.97;2.40;;;18.40;99.90;;;;;;4966939;28;20481;-75
2023/09/02 07:36:14;;;;;;;3.08;2.47;;;18.50;99.90;;;;;;4970478;28;20078;-75
2023/09/02 07:38:40;;;;;;;4.13;2.65;;;18.60;99.90;;;;;;4966506;28;20105;-75
2023/09/02 07:41:06;;;;;;;2.95;2.53;;;18.70;99.90;;;;;;4971942;28;20062;-75
2023/09/02 07:43:32;;;;;;;;;;;18.60;1.00;;;;;;4956193;28;20410;-75
2023/09/02 07:45:58;;;;;;;2.85;2.42;;;18.70;99.90;;;;;;4972412;28;20391;-75
2023/09/02 07:48:25;;;;;;;4.72;2.40;;;18.80;1.00;;;;;;4967894;28;20047;-75
2023/09/02 07:50:50;;;;;;;3.53;1.98;;;18.90;99.90;;;;;;4970393;28;20043;-75
2023/09/02 07:53:16;;;;;;;;;;;19.00;99.90;;;;;;4969838;28;20129;-75
2023/09/02 07:55:42;;;;;;;2.58;2.20;;;19.00;99.90;;;;;;4986833;28;19922;-75
2023/09/02 07:58:07;;;;;;;;;;;19.10;99.90;;;;;;4997884;28;20440;-75
2023/09/02 08:00:34;;;;;;;3.70;2.40;;;19.20;85.10;;;;;;4994406;28;19918;-75
2023/09/02 08:02:59;;;;;;;2.88;2.15;;;19.40;1.00;;;;;;4968724;28;20039;-75
2023/09/02 08:05:25;;;;;;;;;;;19.60;1.00;;;;;;4966173;28;20495;-75
2023/09/02 08:07:51;;;;;;;2.33;2.05;;;19.70;99.90;;;;;;4999562;28;19922;-75
2023/09/02 08:10:17;;;;;;;;;;;19.80;99.90;;;;;;4982268;28;20141;-76
2023/09/02 08:12:43;;;;;;;2.55;1.88;;;19.90;99.90;;;;;;4970444;28;20455;-75
2023/09/02 08:15:12;;;;;;;3.22;2.03;;;20.10;99.90;;;;;;4999303;28;20116;-75
2023/09/02 08:17:41;;;;;;;3.20;1.90;;;20.10;70.60;;;;;;4965795;28;20513;-75
2023/09/02 08:20:08;;;;;;;2.17;1.63;;;20.20;1.00;;;;;;4959254;28;20059;-76
2023/09/02 08:22:39;;;;;;;4.13;2.58;;;20.30;6.40;;;;;;4994051;28;20058;-75
2023/09/02 08:25:05;;;;;;;3.35;2.20;;;20.20;1.00;;;;;;4969057;28;21007;-75
2023/09/02 08:27:31;;;;;;;4.00;2.10;;;20.20;99.90;;;;;;4955249;28;20106;-76
2023/09/02 08:29:57;;;;;;;2.25;1.95;;;20.30;1.00;;;;;;4963083;28;20570;-75
2023/09/02 08:32:23;;;;;;;2.70;1.95;;;20.40;1.00;;;;;;4987710;28;20057;-75
2023/09/02 08:34:49;;;;;;;3.17;2.00;;;20.50;99.90;;;;;;4965202;28;20125;-76
2023/09/02 08:37:14;;;;;;;2.03;1.40;;;20.70;99.90;;;;;;4965274;28;20058;-76
2023/09/02 08:39:42;;;;;;;2.72;1.73;;;20.90;99.90;;;;;;4965974;28;20054;-87
2023/09/02 08:42:08;;;;;;;2.20;1.40;;;21.10;99.90;;;;;;4966018;28;20055;-75
2023/09/02 08:44:35;;;;;;;3.33;1.90;;;21.20;99.90;;;;;;4954587;28;20407;-75
2023/09/02 08:47:06;;;;;;;2.97;2.05;;;21.40;99.90;;;;;;4982214;28;20483;-75
2023/09/02 08:49:33;;;;;;;3.53;1.98;;;21.50;99.90;;;;;;4993119;28;20035;-76
2023/09/02 08:51:59;;;;;;;4.10;1.80;;;21.60;99.90;;;;;;4966534;28;20047;-76
2023/09/02 08:54:27;;;;;;;3.65;2.05;;;21.60;99.90;;;;;;4954553;28;20047;-76
2023/09/02 08:56:57;;;;;;;3.53;2.33;;;21.60;5.40;;;;;;4954417;28;20046;-76
2023/09/02 08:59:24;;;;;;;2.78;1.77;;;21.60;95.70;;;;;;4968806;28;20178;-76
2023/09/02 09:01:51;;;;;;;2.13;1.65;;;21.70;99.90;;;;;;4970525;28;20047;-76
2023/09/02 09:04:19;;;;;;;4.00;2.50;;;21.70;77.40;;;;;;4965272;28;20046;-76
2023/09/02 09:06:45;;;;;;;3.17;1.88;;;21.30;1.00;;;;;;4973683;28;20268;-76
2023/09/02 09:09:12;;;;;;;2.42;1.58;;;21.20;99.90;;;;;;4964697;28;20062;-77
2023/09/02 09:11:43;;;;;;;3.50;2.13;;;21.30;99.90;;;;;;4967751;28;20089;-77
2023/09/02 09:14:19;;;;;;;2.28;1.92;;;21.30;99.50;;;;;;4965267;28;20034;-77
2023/09/02 09:16:47;;;;;;;3.67;2.50;;;21.40;29.60;;;;;;4966973;28;20046;-77
2023/09/02 09:19:16;;;;;;;3.78;2.60;;;21.20;1.00;;;;;;4951069;28;20050;-77
2023/09/02 09:21:41;;;;;;;3.65;2.65;;;21.30;99.90;;;;;;4989150;28;20084;-77
2023/09/02 09:24:12;;;;;;;4.18;2.10;;;21.30;1.00;;;;;;4965401;28;20107;-77
2023/09/02 09:26:40;;;;;;;2.47;2.15;;;21.40;41.90;;;;;;4969739;28;20513;-77
2023/09/02 09:29:11;;;;;;;3.05;2.50;;;21.50;76.40;;;;;;4968358;28;20512;-75
2023/09/02 09:31:37;;;;;;;3.30;2.10;;;21.60;99.90;;;;;;4996905;28;20050;-76
2023/09/02 09:34:03;;;;;;;2.55;2.00;;;21.40;1.00;;;;;;4944982;28;20051;-76
2023/09/02 09:36:31;;;;;;;2.97;2.10;;;21.20;1.00;;;;;;4941283;28;20070;-76
2023/09/02 09:38:59;;;;;;;3.15;2.05;;;21.00;99.90;;;;;;4971956;28;20069;-76
2023/09/02 09:41:26;;;;;;;2.05;1.60;;;20.90;99.90;;;;;;4969682;28;20190;-76
2023/09/02 09:44:12;;;;;;;2.42;1.67;;;20.80;99.90;;;;;;4969767;28;20065;-76
2023/09/02 09:46:44;;;;;;;2.57;1.80;;;20.70;99.90;;;;;;4951700;28;20054;-76
2023/09/02 09:49:26;;;;;;;2.90;1.75;;;20.60;99.90;;;;;;4952951;28;20406;-76
2023/09/02 09:52:08;;;;;;;3.00;1.80;;;20.60;99.90;;;;;;4969430;28;20078;-76
2023/09/02 09:54:41;;;;;;;2.03;1.45;;;20.60;99.90;;;;;;4963341;28;20034;-76
2023/09/02 09:57:09;;;;;;;1.92;1.30;;;20.50;99.90;;;;;;4968145;28;20129;-75
2023/09/02 09:59:35;;;;;;;1.95;1.50;;;20.50;99.90;;;;;;4968396;28;20046;-75
2023/09/02 10:02:05;;;;;;;2.00;1.40;;;20.40;99.90;;;;;;4988132;28;20128;-76
2023/09/02 10:04:32;;;;;;;2.05;1.67;;;20.30;99.90;;;;;;4972017;28;20872;-75
2023/09/02 10:07:02;;;;;;;2.63;1.92;;;20.30;99.90;;;;;;4970219;28;20050;-75
2023/09/02 10:09:45;;;;;;;2.25;1.58;;;20.10;99.90;;;;;;4989145;28;20541;-75
2023/09/02 10:12:18;;;;;;;2.28;1.40;;;20.20;1.00;;;;;;5004896;28;20502;-75
2023/09/02 10:14:45;;;;;;;2.28;1.67;;;20.20;1.00;;;;;;4946868;28;20174;-75
2023/09/02 10:17:12;;;;;;;2.10;1.60;;;20.30;1.00;;;;;;4983018;28;20153;-75
2023/09/02 10:19:39;;;;;;;2.55;1.83;;;20.80;99.90;;;;;;4958196;28;20093;-75
2023/09/02 10:22:06;;;;;;;4.63;3.40;;;21.30;99.90;;;;;;4966938;28;20402;-76
2023/09/02 10:25:00;;;;;;;6.38;4.55;;;21.40;1.00;;;;;;4972978;28;20055;-77
2023/09/02 10:27:31;;;;;;;5.35;3.97;;;21.30;1.00;;;;;;4976767;28;20494;-75
2023/09/02 10:29:58;;;;;;;5.30;4.07;;;21.20;28.50;;;;;;4970897;28;20473;-75
2023/09/02 10:32:28;;;;;;;4.10;2.60;;;21.30;53.00;;;;;;4966792;28;20041;-76
2023/09/02 10:34:57;;;;;;;2.38;1.80;;;21.10;30.20;;;;;;4972316;28;20042;-76
2023/09/02 10:37:25;;;;;;;3.58;2.40;;;21.00;99.90;;;;;;4974413;28;20113;-76
2023/09/02 10:40:02;;;;;;;3.00;2.30;;;20.70;36.30;;;;;;4961298;28;20096;-76
2023/09/02 10:42:28;;;;;;;3.38;2.40;;;20.40;86.90;;;;;;4968010;28;20459;-76
2023/09/02 10:44:54;;;;;;;3.22;2.72;;;20.20;99.90;;;;;;4967622;28;20054;-76
2023/09/02 10:47:20;;;;;;;3.25;2.22;;;20.10;99.90;;;;;;4970678;28;20063;-76
2023/09/02 10:49:46;;;;;;;2.80;2.05;;;20.40;99.90;;;;;;4957193;28;20487;-75
2023/09/02 10:52:15;;;;;;;2.03;1.50;;;20.50;99.90;;;;;;4967656;28;20039;-76
2023/09/02 10:55:08;;;;;;;3.13;2.15;;;20.70;99.90;;;;;;4969055;28;21586;-77
2023/09/02 10:57:46;;;;;;;2.58;2.00;;;21.00;9.90;;;;;;4970317;28;20114;-78
2023/09/02 11:00:12;;;;;;;3.17;1.98;;;21.60;20.70;;;;;;4969775;28;20042;-77
2023/09/02 11:02:39;;;;;;;2.50;1.83;;;22.00;99.90;;;;;;4971849;28;20043;-77
2023/09/02 11:05:05;;;;;;;2.58;1.90;;;22.50;1.00;;;;;;4956341;28;20042;-77
2023/09/02 11:07:33;;;;;;;4.53;2.38;;;22.90;99.90;;;;;;4971554;28;20062;-78
2023/09/02 11:10:01;;;;;;;2.53;1.70;;;23.20;99.90;;;;;;4971002;28;20473;-77
2023/09/02 11:12:27;;;;;;;3.15;2.28;;;23.30;99.90;;;;;;4961697;28;20045;-77
2023/09/02 11:15:08;;;;;;;3.97;3.08;;;23.30;99.90;;;;;;4972525;28;20039;-77
2023/09/02 11:17:35;;;;;;;3.35;2.58;;;23.00;95.40;;;;;;4971004;28;20049;-77
2023/09/02 11:20:06;;;;;;;3.88;2.63;;;23.00;99.90;;;;;;4975979;28;20079;-77
2023/09/02 11:22:54;;;;;;;5.47;2.80;;;23.00;99.90;;;;;;5001943;28;20097;-77
2023/09/02 11:25:32;;;;;;;3.08;2.13;;;22.30;99.90;;;;;;4956170;28;20078;-77
2023/09/02 11:28:00;;;;;;;2.38;1.80;;;21.80;99.90;;;;;;4953000;28;20051;-78
2023/09/02 11:30:28;;;;;;;1.83;1.40;;;21.40;99.90;;;;;;4967648;28;20035;-77
2023/09/02 11:32:55;;;;;;;2.00;1.40;;;21.50;39.60;;;;;;4970540;28;20082;-76
2023/09/02 11:35:30;;;;;;;1.90;1.50;;;22.00;99.90;;;;;;4958480;28;20368;-77
2023/09/02 11:37:56;;;;;;;1.98;1.35;;;22.50;99.90;;;;;;4952424;28;20150;-79
2023/09/02 11:40:26;;;;;;;2.28;1.50;;;22.90;99.90;;;;;;4958226;28;20054;-78
2023/09/02 11:43:02;;;;;;;2.80;1.60;;;23.30;14.30;;;;;;4982074;28;20045;-78
2023/09/02 11:45:34;;;;;;;3.75;1.90;;;23.30;1.00;;;;;;4981262;28;20055;-78
2023/09/02 11:48:01;;;;;;;3.33;2.03;;;23.40;1.00;;;;;;4969734;28;20114;-78
2023/09/02 11:50:27;;;;;;;2.22;1.80;;;23.40;1.00;;;;;;4982228;28;20146;-79
2023/09/02 11:52:54;;;;;;;3.20;1.92;;;23.10;28.70;;;;;;5001978;28;20121;-79
2023/09/02 11:55:21;;;;;;;2.03;1.40;;;22.20;99.90;;;;;;4986475;28;20047;-78
2023/09/02 11:57:48;;;;;;;2.58;1.80;;;21.70;99.90;;;;;;4970575;28;20123;-78
2023/09/02 12:00:16;;;;;;;3.25;1.73;;;21.10;99.90;;;;;;4958001;28;20053;-78
2023/09/02 12:02:42;;;;;;;2.20;1.40;;;20.70;1.00;;;;;;4971575;28;20125;-79
2023/09/02 12:05:08;;;;;;;1.90;1.27;;;20.40;80.80;;;;;;4970344;28;20046;-78
2023/09/02 12:07:36;;;;;;;2.75;2.03;;;20.40;99.90;;;;;;4942336;28;20510;-80
2023/09/02 12:10:10;;;;;;;2.97;1.60;;;20.50;99.90;;;;;;4964515;28;20047;-76
2023/09/02 12:12:41;;;;;;;3.45;1.60;;;21.00;99.90;;;;;;4994809;28;20043;-77
2023/09/02 12:15:10;;;;;;;3.28;1.42;;;21.60;13.70;;;;;;4951869;28;20047;-77
2023/09/02 12:17:37;;;;;;;3.20;1.83;;;22.00;1.00;;;;;;4980202;28;20818;-78
2023/09/02 12:20:03;;;;;;;2.53;1.35;;;22.20;99.90;;;;;;4968351;28;20057;-78
2023/09/02 12:22:28;;;;;;;3.28;1.67;;;22.40;99.90;;;;;;4971330;28;20506;-77
2023/09/02 12:24:54;;;;;;;2.13;1.42;;;22.40;99.90;;;;;;4967880;28;20066;-80
2023/09/02 12:27:20;;;;;;;2.53;1.50;;;22.20;99.90;;;;;;4960398;28;20061;-76
2023/09/02 12:29:58;;;;;;;1.95;1.40;;;21.90;99.90;;;;;;4948846;28;20038;-76
2023/09/02 12:32:24;;;;;;;1.90;1.40;;;22.00;99.90;;;;;;4977186;28;20049;-76
2023/09/02 12:34:50;;;;;;;1.98;1.10;;;22.30;99.90;;;;;;4972700;28;20074;-76
2023/09/02 12:37:20;;;;;;;1.55;1.02;;;22.60;99.90;;;;;;4962825;28;20141;-76
2023/09/02 12:39:47;;;;;;;1.92;1.15;;;22.90;99.90;;;;;;4963190;28;20498;-76
2023/09/02 12:42:26;;;;;;;2.88;1.70;;;23.10;99.90;;;;;;4948875;28;20058;-76
2023/09/02 12:44:53;;;;;;;2.13;1.25;;;23.20;99.90;;;;;;4952975;28;20390;-76
2023/09/02 12:47:30;;;;;;;2.65;1.13;;;22.80;99.90;;;;;;4959900;28;20777;-76
2023/09/02 12:50:02;;;;;;;2.90;1.55;;;22.30;99.90;;;;;;4968251;28;20081;-77
2023/09/02 12:52:29;;;;;;;1.45;0.90;;;22.20;99.90;;;;;;4968597;28;20050;-77
2023/09/02 12:55:00;;;;;;;2.55;0.93;;;22.70;99.90;;;;;;4967872;28;20122;-77